Nearby METAR Reports

 

KCFV - Coffeyville, Kansas, USA
Distance from station: ENE 93mi, 150km
Updated: Mon, 03-01-2021 12:52pm CST
Clear
Clear
 Wind from varies
Wind: varies 3 mph , 6 km/h
Temperature: 52°F , 11°C
Dew Point: 27°F , -3°C
Humidity: 38%
Barometer: 1028.1 hPa
Clouds: Clear
Visibility: 10 miles , 16 km
2021/03/01 18:52 KCFV 011852Z AUTO VRB03KT 10SM CLR 11/M03 A3036 RMK AO2 SLP285 T01061028
KIDP - Independence, Kansas, USA
Distance from station: NE 86mi, 138km
Updated: Mon, 03-01-2021 12:55pm CST
Clear
Clear
 Wind from W
Wind: W 7 mph , 11 km/h
Temperature: 52°F , 11°C
Dew Point: 28°F , -2°C
Humidity: 41%
Barometer: 1028.4 hPa
Clouds: Clear
Visibility: 10 miles , 16 km
2021/03/01 18:55 KIDP 011855Z AUTO 28006KT 10SM CLR 11/M02 A3037 RMK AO2 T01071024
KIAB - Mcconnell Afb, Kansas, USA
Distance from station: N 84mi, 135km
Updated: Mon, 03-01-2021 12:56pm CST
Clear
Clear
 Wind from NNW
Wind: NNW 9 mph , 15 km/h
Temperature: 54°F , 12°C
Dew Point: 21°F , -6°C
Humidity: 28%
Barometer: 1027.4 hPa
Clouds: Clear
Visibility: 10 miles , 16 km
2021/03/01 18:56 KIAB 011856Z AUTO 33008KT 10SM CLR 12/M06 A3034 RMK AO2 SLP284 T01151059
 
KICT - Wichita, Kansas, USA
Distance from station: NNW 88mi, 142km
Updated: Mon, 03-01-2021 12:53pm CST
Clear
Clear
 Wind from N
Wind: N 8 mph , 13 km/h
Temperature: 54°F , 12°C
Dew Point: 23°F , -5°C
Humidity: 30%
Barometer: 1027.4 hPa
Clouds: Clear
Visibility: 10 miles , 16 km
2021/03/01 18:53 KICT 011853Z 35007KT 10SM CLR 12/M05 A3034 RMK AO2 SLP280 T01171050
KAAO - Wichita/Jabara, Kansas, USA
Distance from station: N 93mi, 149km
Updated: Mon, 03-01-2021 12:54pm CST
Clear
Clear
 Wind from NNW
Wind: NNW 12 mph , 19 km/h
Temperature: 54°F , 12°C
Dew Point: 21°F , -6°C
Humidity: 28%
Barometer: 1027.4 hPa
Clouds: Clear
Visibility: 10 miles , 16 km
2021/03/01 18:54 KAAO 011854Z AUTO 33010KT 10SM CLR 12/M06 A3034 RMK AO2 SLP282 T01221061
KWLD - Winfield/Arkansa, Kansas, USA
Distance from station: N 52mi, 84km
Updated: Mon, 03-01-2021 12:54pm CST
Clear
Clear
 
Temperature: 52°F , 11°C
Dew Point: 23°F , -5°C
Humidity: 32%
Barometer: 1028.4 hPa
Clouds: Clear
Visibility: 10 miles , 16 km
2021/03/01 18:54 KWLD 011854Z AUTO 10SM CLR 11/M05 A3037 RMK AO2 SLP288 T01111050
 
KAVK - Alva, Oklahoma, USA
Distance from station: WNW 94mi, 152km
Updated: Mon, 03-01-2021 1:15pm CST
Clear
Clear
 Wind from calm
Wind: Calm
Temperature: 57°F , 14°C
Dew Point: 18°F , -8°C
Humidity: 21%
Barometer: 1027.4 hPa
Clouds: Clear
Visibility: 10 miles , 16 km
2021/03/01 19:15 KAVK 011915Z AUTO 00000KT 10SM CLR 14/M08 A3034 RMK AO2 PWINO TSNO
KBVO - Bartlesville, Oklahoma, USA
Distance from station: ENE 61mi, 98km
Updated: Mon, 03-01-2021 12:53pm CST
Clear
Clear
 Wind from N
Wind: N 5 mph , 7 km/h
Temperature: 52°F , 11°C
Dew Point: 27°F , -3°C
Humidity: 38%
Barometer: 1028.8 hPa
Clouds: Clear
Visibility: 10 miles , 16 km
2021/03/01 18:53 KBVO 011853Z AUTO 01004KT 10SM CLR 11/M03 A3038 RMK AO2 SLP286 T01111033
KBKN - Blackwell, Oklahoma, USA
Distance from station: NW 29mi, 47km
Updated: Mon, 03-01-2021 1:15pm CST
Clear
Clear
 Wind from WNW
Wind: WNW 6 mph , 9 km/h
Temperature: 50°F , 10°C
Wind Chill: 48°F , 9°C
Dew Point: 28°F , -2°C
Humidity: 43%
Barometer: 1028.4 hPa
Clouds: Clear
Visibility: 10 miles , 16 km
2021/03/01 19:15 KBKN 011915Z AUTO 29005KT 10SM CLR 10/M02 A3037 RMK AO2
 
KGCM - Claremore, Oklahoma, USA
Distance from station: E 86mi, 138km
Updated: Mon, 03-01-2021 1:15pm CST
Clear
Clear
 Wind from N
Wind: N 5 mph , 7 km/h
Temperature: 52°F , 11°C
Dew Point: 21°F , -6°C
Humidity: 30%
Barometer: 1027.8 hPa
Clouds: Clear
Visibility: 10 miles , 16 km
2021/03/01 19:15 KGCM 011915Z AUTO 01004KT 10SM CLR 11/M06 A3035 RMK AO2
KCQB - Chandler, Oklahoma, USA
Distance from station: SSE 50mi, 80km
Updated: Mon, 03-01-2021 1:15pm CST
Clear
Clear
 Wind from N
Wind: N 13 mph , 20 km/h, Gust: 23 mph , 37 km/h
Temperature: 55°F , 13°C
Dew Point: 23°F , -5°C
Humidity: 28%
Barometer: 1027.4 hPa
Clouds: Clear
Visibility: 10 miles , 16 km
2021/03/01 19:15 KCQB 011915Z AUTO 35011G20KT 10SM CLR 13/M05 A3034 RMK AO2 T01281047
KCUH - Cushing, Oklahoma, USA
Distance from station: SSE 35mi, 57km
Updated: Mon, 03-01-2021 1:15pm CST
Clear
Clear
 Wind from N
Wind: N 7 mph , 11 km/h
Temperature: 54°F , 12°C
Dew Point: 25°F , -4°C
Humidity: 33%
Barometer: 1027.4 hPa
Clouds: Clear
Visibility: 10 miles , 16 km
2021/03/01 19:15 KCUH 011915Z AUTO 01006KT 10SM CLR 12/M04 A3034 RMK AO2 T01191044
 
KRQO - El Reno Muni, Oklahoma, USA
Distance from station: SW 85mi, 137km
Updated: Mon, 03-01-2021 1:15pm CST
Clear
Clear
 Wind from N
Wind: N 15 mph , 24 km/h
Temperature: 50°F , 10°C
Wind Chill: 45°F , 7°C
Dew Point: 28°F , -2°C
Humidity: 43%
Barometer: 1028.8 hPa
Clouds: Clear
Visibility: 10 miles , 16 km
2021/03/01 19:15 KRQO 011915Z AUTO 36013KT 10SM CLR 10/M02 A3038 RMK AO2 T00981023
KEND - Enid/Vance Afb, Oklahoma, USA
Distance from station: W 50mi, 81km
Updated: Mon, 03-01-2021 12:56pm CST
Clear
Clear
 Wind from NW
Wind: NW 6 mph , 9 km/h
Temperature: 50°F , 10°C
Wind Chill: 48°F , 9°C
Dew Point: 25°F , -4°C
Humidity: 37%
Barometer: 1028.1 hPa
Clouds: Clear
Visibility: 10 miles , 16 km
2021/03/01 18:56 KEND 011856Z AUTO 31005KT 10SM CLR 10/M04 A3036 RMK AO2 SLP288 T01041044 $
KWDG - Enid/Woodring, Oklahoma, USA
Distance from station: W 42mi, 67km
Updated: Mon, 03-01-2021 12:45pm CST
Partly cloudy
Partly cloudy
 Wind from calm
Wind: Calm
Temperature: 50°F , 10°C
Dew Point: 28°F , -2°C
Humidity: 43%
Barometer: 1028.4 hPa
Clouds: Partly cloudy
Visibility: 10 miles , 16 km
Cloud details: Partly cloudy 18000 ft
2021/03/01 18:45 KWDG 011845Z 00000KT 10SM SCT180 10/M02 A3037
 
KGOK - Guthrie, Oklahoma, USA
Distance from station: SSW 44mi, 71km
Updated: Mon, 03-01-2021 12:53pm CST
Clear
Clear
 Wind from varies
Wind: varies 7 mph , 11 km/h
Temperature: 52°F , 11°C
Dew Point: 27°F , -3°C
Humidity: 38%
Barometer: 1028.1 hPa
Clouds: Clear
Visibility: 10 miles , 16 km
2021/03/01 18:53 KGOK 011853Z AUTO VRB06KT 10SM CLR 11/M03 A3036 RMK AO2 SLP287 T01061028
KOUN - Norman/Westheime, Oklahoma, USA
Distance from station: SSW 84mi, 136km
Updated: Mon, 03-01-2021 12:47pm CST
Clear
Clear
 Wind from NNE
Wind: NNE 14 mph , 22 km/h, Gust: 18 mph , 30 km/h
Temperature: 55°F , 13°C
Dew Point: 21°F , -6°C
Humidity: 26%
Barometer: 1027.1 hPa
Clouds: Clear
Visibility: 10 miles , 16 km
2021/03/01 18:47 KOUN 011847Z 03012G16KT 10SM CLR 13/M06 A3033
KOKC - Oklahoma City, Oklahoma, USA
Distance from station: SSW 78mi, 126km
Updated: Mon, 03-01-2021 12:52pm CST
Mostly cloudy
Mostly cloudy
 Wind from NE
Wind: NE 12 mph , 19 km/h
Temperature: 54°F , 12°C
Dew Point: 18°F , -8°C
Humidity: 24%
Barometer: 1027.8 hPa
Clouds: Mostly cloudy
Visibility: 10 miles , 16 km
Cloud details: Partly cloudy 13000 ft
Partly cloudy 18000 ft
Mostly cloudy 25000 ft
2021/03/01 18:52 KOKC 011852Z 04010KT 10SM SCT130 SCT180 BKN250 12/M08 A3035 RMK AO2 SLP278 T01221078
 
KPWA - Okla City/Wiley, Oklahoma, USA
Distance from station: SSW 70mi, 113km
Updated: Mon, 03-01-2021 12:53pm CST
Clear
Clear
 Wind from N
Wind: N 14 mph , 22 km/h
Temperature: 54°F , 12°C
Dew Point: 27°F , -3°C
Humidity: 35%
Barometer: 1028.1 hPa
Clouds: Clear
Visibility: 10 miles , 16 km
2021/03/01 18:53 KPWA 011853Z 35012KT 10SM CLR 12/M03 A3036 RMK AO2 SLP281 T01171033
KRCE - Okla City/Page, Oklahoma, USA
Distance from station: SW 78mi, 126km
Updated: Mon, 03-01-2021 1:15pm CST
Clear
Clear
 Wind from N
Wind: N 15 mph , 24 km/h
Temperature: 52°F , 11°C
Dew Point: 28°F , -2°C
Humidity: 41%
Barometer: 1028.1 hPa
Clouds: Clear
Visibility: 10 miles , 16 km
2021/03/01 19:15 KRCE 011915Z AUTO 35013KT 10SM CLR 11/M02 A3036 RMK AO2
KOKM - Okmulgee, Oklahoma, USA
Distance from station: SE 79mi, 127km
Updated: Mon, 03-01-2021 1:15pm CST
Clear
Clear
 Wind from N
Wind: N 8 mph , 13 km/h
Temperature: 55°F , 13°C
Dew Point: 25°F , -4°C
Humidity: 31%
Barometer: 1026.8 hPa
Clouds: Clear
Visibility: 10 miles , 16 km
2021/03/01 19:15 KOKM 011915Z AUTO 01007KT 10SM CLR 13/M04 A3032 RMK AO2 T01331044
 
KPNC - Ponca City, Oklahoma, USA
Distance from station: N 22mi, 36km
Updated: Mon, 03-01-2021 12:53pm CST
Clear
Clear
 Wind from calm
Wind: Calm
Temperature: 50°F , 10°C
Dew Point: 27°F , -3°C
Humidity: 40%
Barometer: 1028.4 hPa
Clouds: Clear
Visibility: 10 miles , 16 km
2021/03/01 18:53 KPNC 011853Z AUTO 00000KT 10SM CLR 10/M03 A3037 RMK AO2 SLP288 T01001028
KSNL - Shawnee, Oklahoma, USA
Distance from station: S 74mi, 119km
Updated: Mon, 03-01-2021 1:15pm CST
Clear
Clear
 Wind from NNE
Wind: NNE 12 mph , 19 km/h
Temperature: 55°F , 13°C
Dew Point: 16°F , -9°C
Humidity: 21%
Barometer: 1027.1 hPa
Clouds: Clear
Visibility: 10 miles , 16 km
2021/03/01 19:15 KSNL 011915Z AUTO 02010KT 10SM CLR 13/M09 A3033 RMK AO2 T01251092
KSWO - Stillwater, Oklahoma, USA
Distance from station: S 17mi, 28km
Updated: Mon, 03-01-2021 12:53pm CST
Clear
Clear
 Wind from varies
Wind: varies 6 mph , 9 km/h
Temperature: 55°F , 13°C
Dew Point: 27°F , -3°C
Humidity: 33%
Barometer: 1028.4 hPa
Clouds: Clear
Visibility: 10 miles , 16 km
2021/03/01 18:53 KSWO 011853Z VRB05KT 10SM CLR 13/M03 A3037 RMK AO2 SLP283 T01281028
 
KTIK - Tinker Afb, Oklahoma, USA
Distance from station: SSW 72mi, 115km
Updated: Mon, 03-01-2021 12:56pm CST
Clear
Clear
 Wind from NE
Wind: NE 14 mph , 22 km/h, Gust: 21 mph , 33 km/h
Temperature: 55°F , 13°C
Dew Point: 19°F , -7°C
Humidity: 24%
Barometer: 1027.4 hPa
Clouds: Clear
Visibility: 10 miles , 16 km
2021/03/01 18:56 KTIK 011856Z AUTO 04012G18KT 10SM CLR 13/M07 A3034 RMK AO2 SLP284 T01281068 $
KTUL - Tulsa, Oklahoma, USA
Distance from station: ESE 65mi, 105km
Updated: Mon, 03-01-2021 12:53pm CST
Few Clouds
Few Clouds
 Wind from N
Wind: N 6 mph , 9 km/h
Temperature: 54°F , 12°C
Dew Point: 28°F , -2°C
Humidity: 38%
Barometer: 1027.8 hPa
Clouds: Few Clouds
Visibility: 10 miles , 16 km
Cloud details: Few Clouds 12000 ft
Few Clouds 25000 ft
2021/03/01 18:53 KTUL 011853Z 36005KT 10SM FEW120 FEW250 12/M02 A3035 RMK AO2 SLP277 T01221022